Time;durP1;ratioP1;P1;durP2;ratioP2;P2;SDS_P1;SDS_P2;PMS_P1;PMS_P2;Temp;Humidity;BMP_temperature;BMP_pressure;BME280_temperature;BME280_humidity;BME280_pressure;Samples;Min_cycle;Max_cycle;Signal;HPM_P1;HPM_P2
2023/06/26 00:00:05;;;;;;;0.30;0.30;;;;;;;21.21;44.22;96795.59;29395;240;63004;-51
2023/06/26 00:00:36;;;;;;;0.30;0.30;;;;;;;21.21;44.57;96801.91;29394;307;64013;-51
2023/06/26 00:01:08;;;;;;;0.30;0.30;;;;;;;21.22;44.50;96798.00;29395;215;63004;-51
2023/06/26 00:01:39;;;;;;;0.30;0.30;;;;;;;21.21;44.88;96795.59;29395;232;63009;-52
2023/06/26 00:02:11;;;;;;;0.30;0.30;;;;;;;21.21;44.52;96795.59;29395;285;63005;-60
2023/06/26 00:02:45;;;;;;;0.30;0.30;;;;;;;21.20;44.31;96796.72;29395;284;63009;-51
2023/06/26 00:03:19;;;;;;;0.30;0.30;;;;;;;21.20;44.52;96794.78;29394;290;64005;-51
2023/06/26 00:03:50;;;;;;;0.30;0.30;;;;;;;21.17;44.92;96801.03;29395;294;63005;-59
2023/06/26 00:04:21;;;;;;;0.30;0.30;;;;;;;21.15;44.98;96802.53;29394;264;64009;-51
2023/06/26 00:04:53;;;;;;;0.30;0.30;;;;;;;21.14;44.67;96800.97;29395;258;63009;-58
2023/06/26 00:05:24;;;;;;;0.30;0.30;;;;;;;21.14;44.63;96803.72;29395;275;63005;-59
2023/06/26 00:06:00;;;;;;;0.30;0.30;;;;;;;21.11;44.68;96794.22;29394;241;64013;-59
2023/06/26 00:06:31;;;;;;;0.30;0.30;;;;;;;21.09;44.69;96799.31;29395;245;63004;-60
2023/06/26 00:07:04;;;;;;;0.30;0.30;;;;;;;21.08;44.71;96792.19;29395;202;63016;-51
2023/06/26 00:07:38;;;;;;;0.30;0.30;;;;;;;21.08;44.71;96798.50;29395;222;63004;-51
2023/06/26 00:08:10;;;;;;;0.30;0.30;;;;;;;21.07;44.82;96807.13;29395;256;63008;-59
2023/06/26 00:08:42;;;;;;;0.30;0.30;;;;;;;21.08;44.89;96804.03;29395;278;63004;-51
2023/06/26 00:09:17;;;;;;;0.30;0.30;;;;;;;21.08;44.98;96797.69;29395;215;63025;-51
2023/06/26 00:09:48;;;;;;;0.30;0.30;;;;;;;21.09;44.41;96799.31;29395;252;63005;-59
2023/06/26 00:10:20;;;;;;;0.30;0.30;;;;;;;21.08;44.70;96798.50;29395;218;63009;-59
2023/06/26 00:10:51;;;;;;;0.30;0.30;;;;;;;21.08;44.65;96798.50;29394;258;64009;-57
2023/06/26 00:11:23;;;;;;;0.30;0.30;;;;;;;21.08;44.68;96792.19;29395;263;63013;-60
2023/06/26 00:11:54;;;;;;;0.30;0.30;;;;;;;21.09;44.87;96804.81;29395;282;63005;-59
2023/06/26 00:12:25;;;;;;;0.30;0.30;;;;;;;21.08;44.89;96800.47;29395;242;63009;-52
2023/06/26 00:12:56;;;;;;;0.30;0.30;;;;;;;21.08;44.89;96800.47;29395;326;63005;-51
2023/06/26 00:13:28;;;;;;;0.30;0.30;;;;;;;21.06;45.08;96800.81;29395;292;63009;-59
2023/06/26 00:14:02;;;;;;;0.30;0.30;;;;;;;21.07;44.75;96801.63;29395;266;63004;-50
2023/06/26 00:14:33;;;;;;;0.30;0.30;;;;;;;21.05;44.75;96798.44;29395;213;63004;-51
2023/06/26 00:15:07;;;;;;;1.40;1.30;;;;;;;21.06;44.75;96800.81;29395;251;63014;-51
2023/06/26 00:15:39;;;;;;;0.30;0.30;;;;;;;21.08;45.17;96805.97;29395;199;63009;-61
2023/06/26 00:16:10;;;;;;;0.30;0.30;;;;;;;21.07;44.81;96802.41;29394;286;64008;-51
2023/06/26 00:16:42;;;;;;;0.30;0.30;;;;;;;21.09;44.52;96799.31;29395;287;63009;-51
2023/06/26 00:17:13;;;;;;;0.30;0.30;;;;;;;21.10;44.96;96809.19;29395;254;63005;-59
2023/06/26 00:17:45;;;;;;;0.30;0.30;;;;;;;21.07;44.71;96809.91;29395;238;63005;-51
2023/06/26 00:18:18;;;;;;;0.30;0.30;;;;;;;21.04;44.59;96802.34;29395;232;63005;-51
2023/06/26 00:18:49;;;;;;;0.30;0.30;;;;;;;21.02;44.97;96804.66;29395;257;63009;-58
2023/06/26 00:19:20;;;;;;;0.30;0.30;;;;;;;20.99;44.85;96799.87;29395;197;63005;-58
2023/06/26 00:19:52;;;;;;;0.30;0.30;;;;;;;20.99;44.63;96800.66;29395;219;63009;-50
2023/06/26 00:20:24;;;;;;;0.30;0.30;;;;;;;20.99;45.04;96808.16;29395;222;63005;-50
2023/06/26 00:20:56;;;;;;;0.30;0.30;;;;;;;20.98;44.91;96803.78;29395;197;63009;-53
2023/06/26 00:21:27;;;;;;;0.30;0.30;;;;;;;20.98;45.26;96809.31;29394;196;64009;-50
2023/06/26 00:21:59;;;;;;;0.30;0.30;;;;;;;20.95;45.00;96801.75;29395;209;63009;-51
2023/06/26 00:22:31;;;;;;;0.30;0.30;;;;;;;20.96;45.12;96801.41;29395;202;63009;-50
2023/06/26 00:23:07;;;;;;;1.33;1.33;;;;;;;20.96;45.01;96803.34;29394;220;64013;-62
2023/06/26 00:23:38;;;;;;;0.30;0.30;;;;;;;20.96;45.00;96804.16;29395;206;63004;-59
2023/06/26 00:24:09;;;;;;;0.30;0.30;;;;;;;20.96;45.12;96806.91;29395;240;63009;-50
2023/06/26 00:24:41;;;;;;;0.30;0.30;;;;;;;20.96;45.20;96800.59;29395;218;63005;-59
2023/06/26 00:25:13;;;;;;;0.30;0.30;;;;;;;20.95;45.15;96804.50;29395;207;63009;-52
2023/06/26 00:25:44;;;;;;;0.30;0.30;;;;;;;20.95;45.14;96804.50;29395;216;63005;-58
2023/06/26 00:26:15;;;;;;;0.30;0.30;;;;;;;20.97;45.12;96805.75;29395;242;63009;-51
2023/06/26 00:26:47;;;;;;;0.30;0.30;;;;;;;20.98;45.02;96806.56;29395;210;63005;-50
2023/06/26 00:27:19;;;;;;;0.30;0.30;;;;;;;20.96;45.02;96800.59;29395;224;63009;-51
2023/06/26 00:27:50;;;;;;;0.30;0.30;;;;;;;20.99;45.41;96797.91;29395;258;63005;-50
2023/06/26 00:28:22;;;;;;;0.30;0.30;;;;;;;21.01;44.91;96803.06;29394;255;64013;-50
2023/06/26 00:28:53;;;;;;;0.30;0.30;;;;;;;21.00;44.80;96804.22;29395;204;63004;-51
2023/06/26 00:29:24;;;;;;;0.30;0.30;;;;;;;21.01;44.97;96803.88;29395;198;63009;-60
2023/06/26 00:29:55;;;;;;;0.30;0.30;;;;;;;21.01;44.93;96805.81;29394;203;64009;-57
2023/06/26 00:30:27;;;;;;;0.30;0.30;;;;;;;21.01;45.20;96803.06;29395;198;63009;-51
2023/06/26 00:30:58;;;;;;;0.20;0.20;;;;;;;20.99;44.97;96799.87;29395;230;63007;-59
2023/06/26 00:31:29;;;;;;;0.30;0.30;;;;;;;20.98;45.08;96801.03;29395;261;63008;-58
2023/06/26 00:32:01;;;;;;;0.30;0.30;;;;;;;20.99;45.03;96799.87;29395;219;63005;-51
2023/06/26 00:32:34;;;;;;;0.30;0.30;;;;;;;20.99;44.96;96799.87;29394;226;64014;-51
2023/06/26 00:33:05;;;;;;;0.30;0.30;;;;;;;20.99;45.14;96805.38;29394;214;64009;-51
2023/06/26 00:33:40;;;;;;;0.30;0.30;;;;;;;20.99;45.35;96800.66;29395;228;63009;-58
2023/06/26 00:34:11;;;;;;;0.30;0.30;;;;;;;20.99;45.12;96799.87;29395;224;63005;-58
2023/06/26 00:34:43;;;;;;;0.30;0.30;;;;;;;20.98;44.76;96801.84;29394;205;64013;-59
2023/06/26 00:35:15;;;;;;;0.30;0.30;;;;;;;20.98;45.05;96801.03;29395;199;63004;-59
2023/06/26 00:35:46;;;;;;;0.30;0.30;;;;;;;20.95;45.48;96804.50;29395;243;63009;-59
2023/06/26 00:36:18;;;;;;;0.30;0.30;;;;;;;20.94;44.93;96798.19;29395;197;63004;-51
2023/06/26 00:36:52;;;;;;;0.30;0.30;;;;;;;20.94;45.17;96805.66;29395;233;63009;-52
2023/06/26 00:37:24;;;;;;;0.30;0.30;;;;;;;20.93;45.43;96802.13;29395;196;63004;-58
2023/06/26 00:37:56;;;;;;;0.30;0.30;;;;;;;20.92;45.16;96799.72;29395;256;63008;-59
2023/06/26 00:38:27;;;;;;;0.30;0.30;;;;;;;20.91;45.23;96795.38;29394;231;64009;-51
2023/06/26 00:38:59;;;;;;;0.30;0.30;;;;;;;20.94;45.16;96797.41;29395;229;63009;-60
2023/06/26 00:39:31;;;;;;;0.30;0.30;;;;;;;20.95;44.75;96801.75;29395;220;63018;-58
2023/06/26 00:40:05;;;;;;;0.50;0.50;;;;;;;20.97;44.98;96796.69;29395;226;63009;-52
2023/06/26 00:40:38;;;;;;;0.30;0.30;;;;;;;20.97;45.23;96803.00;29395;231;63005;-58
2023/06/26 00:41:12;;;;;;;0.30;0.30;;;;;;;21.00;45.08;96796.75;29395;197;63009;-59
2023/06/26 00:41:43;;;;;;;0.30;0.30;;;;;;;21.00;45.24;96796.75;29395;227;63018;-48
2023/06/26 00:42:15;;;;;;;0.30;0.30;;;;;;;21.02;45.26;96799.16;29395;197;63009;-49
2023/06/26 00:42:50;;;;;;;0.30;0.30;;;;;;;21.04;44.63;96796.81;29395;219;63004;-58
2023/06/26 00:43:21;;;;;;;0.30;0.30;;;;;;;21.07;45.09;96802.41;29395;216;63009;-58
2023/06/26 00:43:53;;;;;;;0.30;0.30;;;;;;;21.09;44.79;96799.31;29394;205;64009;-57
2023/06/26 00:44:26;;;;;;;0.30;0.30;;;;;;;21.10;45.05;96789.88;29395;304;63009;-59
2023/06/26 00:44:57;;;;;;;0.30;0.30;;;;;;;21.13;44.66;96800.19;29395;226;63004;-59
2023/06/26 00:45:29;;;;;;;0.30;0.30;;;;;;;21.14;44.84;96798.97;29395;206;63008;-57
2023/06/26 00:46:01;;;;;;;0.30;0.30;;;;;;;21.13;44.58;96800.19;29395;252;63005;-58
2023/06/26 00:46:34;;;;;;;0.30;0.30;;;;;;;21.12;44.77;96793.06;29395;245;63009;-63
2023/06/26 00:47:06;;;;;;;0.30;0.30;;;;;;;21.16;45.05;96793.09;29395;197;63001;-60
2023/06/26 00:47:38;;;;;;;0.30;0.30;;;;;;;21.16;44.76;96798.63;29395;250;63021;-57
2023/06/26 00:48:14;;;;;;;0.30;0.30;;;;;;;21.19;44.67;96798.69;29395;279;63005;-60
2023/06/26 00:48:49;;;;;;;0.30;0.30;;;;;;;21.19;44.65;96795.94;29394;240;64013;-58
2023/06/26 00:49:20;;;;;;;0.30;0.30;;;;;;;21.20;44.77;96793.97;29395;202;63005;-58
2023/06/26 00:49:52;;;;;;;0.40;0.40;;;;;;;21.19;44.86;96793.19;29395;202;63009;-59
2023/06/26 00:50:24;;;;;;;0.30;0.30;;;;;;;21.23;44.59;96794.06;29394;204;64009;-51
2023/06/26 00:50:56;;;;;;;0.30;0.30;;;;;;;21.24;44.62;96798.44;29395;296;63009;-61
2023/06/26 00:51:29;;;;;;;0.30;0.30;;;;;;;21.25;44.50;96794.50;29395;214;63004;-60
2023/06/26 00:52:03;;;;;;;0.30;0.30;;;;;;;21.22;44.26;96792.47;29395;218;63023;-57
2023/06/26 00:52:35;;;;;;;0.30;0.30;;;;;;;21.20;44.91;96792.00;29394;245;64004;-60
2023/06/26 00:53:11;;;;;;;0.30;0.30;;;;;;;21.17;44.66;96789.97;29394;206;64013;-60
2023/06/26 00:53:43;;;;;;;0.30;0.30;;;;;;;21.16;45.11;96791.16;29395;284;63005;-58
2023/06/26 00:54:19;;;;;;;0.30;0.30;;;;;;;21.12;44.70;96793.06;29395;206;63009;-59
2023/06/26 00:54:51;;;;;;;0.30;0.30;;;;;;;21.10;44.65;96795.38;29395;218;63005;-59
2023/06/26 00:55:23;;;;;;;0.30;0.30;;;;;;;21.08;45.02;96792.19;29395;225;63005;-59
2023/06/26 00:55:54;;;;;;;0.30;0.30;;;;;;;21.06;44.88;96794.50;29394;216;64009;-58
2023/06/26 00:56:27;;;;;;;0.30;0.30;;;;;;;21.04;44.72;96794.88;29395;204;63009;-57
2023/06/26 00:56:59;;;;;;;0.30;0.30;;;;;;;21.03;44.94;96795.22;29395;236;63005;-59
2023/06/26 00:57:31;;;;;;;0.30;0.30;;;;;;;21.02;45.06;96799.16;29395;221;63009;-60
2023/06/26 00:58:03;;;;;;;0.30;0.30;;;;;;;21.00;44.98;96791.22;29395;220;63004;-50
2023/06/26 00:58:35;;;;;;;0.30;0.30;;;;;;;21.01;45.34;96792.03;29395;254;63009;-50
2023/06/26 00:59:07;;;;;;;0.30;0.30;;;;;;;21.01;45.08;96795.59;29395;231;63004;-58
2023/06/26 00:59:38;;;;;;;0.30;0.30;;;;;;;21.02;45.38;96788.12;29394;228;64013;-59
2023/06/26 01:00:10;;;;;;;0.30;0.30;;;;;;;21.01;45.33;96792.03;29395;209;63004;-59
2023/06/26 01:00:45;;;;;;;0.20;0.20;;;;;;;21.00;44.99;96795.94;29394;253;64013;-57
2023/06/26 01:01:17;;;;;;;0.30;0.30;;;;;;;20.99;44.99;96788.84;29395;245;63005;-60
2023/06/26 01:01:48;;;;;;;0.30;0.30;;;;;;;20.99;45.24;96795.16;29395;214;63009;-60
2023/06/26 01:02:20;;;;;;;0.30;0.30;;;;;;;20.99;45.20;96788.84;29395;225;63005;-59
2023/06/26 01:02:51;;;;;;;0.30;0.30;;;;;;;20.98;45.39;96793.56;29395;218;63009;-60
2023/06/26 01:03:25;;;;;;;0.55;0.55;;;;;;;21.01;44.86;96794.78;29395;220;63016;-58
2023/06/26 01:03:57;;;;;;;0.30;0.30;;;;;;;20.99;45.16;96789.63;29395;215;63009;-59
2023/06/26 01:04:32;;;;;;;0.30;0.30;;;;;;;21.01;45.00;96792.03;29395;235;63005;-59
2023/06/26 01:05:06;;;;;;;0.30;0.30;;;;;;;21.00;45.05;96795.94;29394;218;64013;-59
2023/06/26 01:05:38;;;;;;;0.30;0.30;;;;;;;20.99;44.92;96784.13;29395;234;63004;-59
2023/06/26 01:06:12;;;;;;;0.30;0.30;;;;;;;21.02;45.00;96788.12;29395;240;63022;-58
2023/06/26 01:06:51;;;;;;;0.30;0.30;;;;;;;21.01;44.91;96789.28;29394;229;64004;-51
2023/06/26 01:07:25;;;;;;;0.30;0.30;;;;;;;21.00;45.14;96788.47;29417;202;63009;-59
2023/06/26 01:07:58;;;;;;;0.30;0.30;;;;;;;20.99;45.34;96789.63;29395;214;63004;-58
2023/06/26 01:08:30;;;;;;;0.30;0.30;;;;;;;20.99;45.01;96783.31;29395;196;63024;-60
2023/06/26 01:09:02;;;;;;;0.30;0.30;;;;;;;21.01;45.00;96790.06;29395;214;63005;-51
2023/06/26 01:09:34;;;;;;;0.30;0.30;;;;;;;21.01;44.74;96784.56;29395;232;63009;-59
2023/06/26 01:10:07;;;;;;;0.30;0.30;;;;;;;21.01;44.91;96789.28;29394;239;64009;-60
2023/06/26 01:10:39;;;;;;;0.30;0.30;;;;;;;21.01;44.96;96786.50;29395;249;63009;-59
2023/06/26 01:11:11;;;;;;;0.30;0.30;;;;;;;21.00;44.88;96791.22;29395;256;63000;-58
2023/06/26 01:11:42;;;;;;;0.30;0.30;;;;;;;21.01;44.99;96781.00;29395;280;63009;-50
2023/06/26 01:12:15;;;;;;;0.30;0.30;;;;;;;20.99;44.99;96789.63;29395;218;63017;-60
2023/06/26 01:12:46;;;;;;;0.30;0.30;;;;;;;21.02;44.95;96788.91;29395;203;63009;-59
2023/06/26 01:13:18;;;;;;;0.30;0.30;;;;;;;21.01;44.86;96786.50;29394;301;64009;-51
2023/06/26 01:13:51;;;;;;;0.30;0.30;;;;;;;21.01;45.05;96792.03;29395;207;63009;-49
2023/06/26 01:14:23;;;;;;;0.30;0.30;;;;;;;21.01;44.58;96786.50;29395;226;63004;-57
2023/06/26 01:14:55;;;;;;;0.30;0.30;;;;;;;20.99;44.76;96786.09;29394;265;64013;-51
2023/06/26 01:15:27;;;;;;;0.40;0.40;;;;;;;20.98;44.58;96782.53;29395;209;63004;-59
2023/06/26 01:15:59;;;;;;;0.30;0.30;;;;;;;20.99;44.61;96788.84;29394;248;64013;-58
2023/06/26 01:16:32;;;;;;;0.30;0.30;;;;;;;20.98;44.70;96781.72;29395;227;63005;-57
2023/06/26 01:17:04;;;;;;;0.30;0.30;;;;;;;20.99;44.90;96783.31;29395;198;63009;-58
2023/06/26 01:17:37;;;;;;;0.30;0.30;;;;;;;21.01;44.66;96787.31;29395;209;63005;-58
2023/06/26 01:18:09;;;;;;;0.30;0.30;;;;;;;21.01;44.87;96787.31;29395;203;63009;-61
2023/06/26 01:18:42;;;;;;;0.30;0.30;;;;;;;21.02;44.64;96782.59;29395;250;63005;-58
2023/06/26 01:19:27;;;;;;;0.30;0.30;;;;;;;21.02;44.88;96782.59;29395;237;63009;-58
2023/06/26 01:20:00;;;;;;;0.30;0.30;;;;;;;21.01;44.63;96783.75;29394;222;64009;-62
2023/06/26 01:20:41;;;;;;;0.30;0.30;;;;;;;20.98;45.01;96781.72;29395;225;63009;-60
2023/06/26 01:21:14;;;;;;;0.30;0.30;;;;;;;20.97;44.91;96780.12;29417;196;63015;-58
2023/06/26 01:21:48;;;;;;;0.30;0.30;;;;;;;20.96;44.95;96784.84;29395;196;63009;-61
2023/06/26 01:23:26;;;;;;;0.30;0.30;;;;;;;20.98;44.81;96777.00;29395;202;63004;-60
2023/06/26 01:24:30;;;;;;;0.30;0.30;;;;;;;20.98;44.86;96781.72;29394;238;64014;-51
2023/06/26 01:25:29;;;;;;;0.30;0.30;;;;;;;20.96;44.91;96775.78;29394;202;64009;-57
2023/06/26 01:26:37;;;;;;;0.30;0.30;;;;;;;20.93;45.25;96779.25;29395;216;63009;-51
2023/06/26 01:27:11;;;;;;;0.30;0.30;;;;;;;20.90;44.67;96780.78;29394;217;64009;-52
2023/06/26 01:27:43;;;;;;;0.30;0.30;;;;;;;20.91;45.33;96781.56;29395;229;63009;-51
2023/06/26 01:28:17;;;;;;;0.32;0.32;;;;;;;20.91;45.13;96787.09;29394;244;64009;-49
2023/06/26 01:28:51;;;;;;;0.30;0.30;;;;;;;20.89;45.06;96778.38;29394;213;64013;-49
2023/06/26 01:29:24;;;;;;;0.30;0.30;;;;;;;20.90;44.96;96780.78;29395;224;63004;-49
2023/06/26 01:29:56;;;;;;;0.30;0.30;;;;;;;20.88;45.27;96776.78;29395;246;63009;-50
2023/06/26 01:30:29;;;;;;;1.12;1.02;;;;;;;20.89;45.00;96778.38;29395;199;63004;-56
2023/06/26 01:31:01;;;;;;;0.30;0.30;;;;;;;20.90;45.30;96777.22;29395;202;63008;-50
2023/06/26 01:31:35;;;;;;;0.30;0.30;;;;;;;20.90;45.10;96777.22;29395;260;63005;-51
2023/06/26 01:32:07;;;;;;;0.30;0.30;;;;;;;20.89;44.88;96773.66;29394;210;64014;-50
2023/06/26 01:32:40;;;;;;;0.30;0.30;;;;;;;20.87;44.80;96775.19;29395;271;63005;-50
2023/06/26 01:33:13;;;;;;;0.30;0.30;;;;;;;20.87;45.17;96777.94;29394;198;64009;-51
2023/06/26 01:33:46;;;;;;;0.30;0.30;;;;;;;20.83;45.25;96775.09;29395;196;63008;-51
2023/06/26 01:34:18;;;;;;;0.30;0.30;;;;;;;20.82;45.29;96779.03;29395;214;63029;-51
2023/06/26 01:34:49;;;;;;;1.73;1.58;;;;;;;20.80;45.23;96772.25;29395;202;63004;-51
2023/06/26 01:35:22;;;;;;;0.30;0.30;;;;;;;20.80;45.39;96780.53;29395;219;63009;-51
2023/06/26 01:35:54;;;;;;;0.30;0.30;;;;;;;20.80;45.38;96775.03;29394;206;64009;-50
2023/06/26 01:36:26;;;;;;;0.30;0.30;;;;;;;20.78;44.98;96771.84;29394;212;64013;-51
2023/06/26 01:36:57;;;;;;;0.30;0.30;;;;;;;20.80;45.38;96775.03;29394;231;64009;-50
2023/06/26 01:37:28;;;;;;;0.30;0.30;;;;;;;20.82;45.36;96779.03;29395;231;63008;-51
2023/06/26 01:38:32;;;;;;;0.35;0.35;;;;;;;20.82;45.06;96775.47;29395;266;63004;-51
2023/06/26 01:39:03;;;;;;;0.40;0.40;;;;;;;20.82;45.21;96772.69;29395;213;63009;-51
2023/06/26 01:39:34;;;;;;;0.30;0.30;;;;;;;20.80;45.20;96772.25;29394;206;64009;-51
2023/06/26 01:40:07;;;;;;;0.30;0.30;;;;;;;20.77;45.29;96765.53;29394;206;64013;-58
2023/06/26 01:40:38;;;;;;;0.30;0.30;;;;;;;20.78;45.39;96771.84;29395;283;63005;-49
2023/06/26 01:41:10;;;;;;;0.30;0.30;;;;;;;20.80;45.58;96769.50;29395;226;63009;-55
2023/06/26 01:41:42;;;;;;;0.30;0.30;;;;;;;20.81;45.29;96765.59;29395;198;63005;-49
2023/06/26 01:42:13;;;;;;;0.30;0.30;;;;;;;20.79;45.80;96771.50;29394;222;64013;-51
2023/06/26 01:42:44;;;;;;;0.30;0.30;;;;;;;20.78;45.40;96778.16;29395;244;63004;-50
2023/06/26 01:43:27;;;;;;;0.30;0.30;;;;;;;20.78;45.67;96760.81;29395;232;63009;-51
2023/06/26 01:44:28;;;;;;;0.30;0.30;;;;;;;20.80;45.39;96769.50;29395;203;63004;-50
2023/06/26 01:45:15;;;;;;;0.30;0.30;;;;;;;20.79;45.48;96762.44;29377;228;125008;-50
2023/06/26 01:45:50;;;;;;;0.30;0.30;;;;;;;20.80;45.68;96772.25;29395;228;63005;-51
2023/06/26 01:46:45;;;;;;;0.30;0.30;;;;;;;20.81;45.58;96771.09;29395;222;63009;-51
2023/06/26 01:47:25;;;;;;;0.40;0.40;;;;;;;20.77;45.82;96768.31;29394;202;64009;-50
2023/06/26 01:48:01;;;;;;;0.40;0.40;;;;;;;20.76;45.50;96763.16;29395;202;63009;-50
2023/06/26 01:48:57;;;;;;;0.30;0.30;;;;;;;20.74;45.68;96767.06;29395;220;63005;-50
2023/06/26 01:49:57;;;;;;;0.30;0.30;;;;;;;20.71;45.71;96762.28;29395;202;63009;-58
2023/06/26 01:50:31;;;;;;;0.40;0.40;;;;;;;20.68;46.03;96768.50;29395;222;63004;-58
2023/06/26 01:51:03;;;;;;;0.30;0.30;;;;;;;20.70;45.94;96768.94;29395;215;63009;-51
2023/06/26 01:51:40;;;;;;;0.30;0.30;;;;;;;20.69;45.83;96770.09;29395;202;63004;-57
2023/06/26 01:52:24;;;;;;;0.30;0.30;;;;;;;20.66;46.18;96775.53;29394;208;64013;-58
2023/06/26 01:53:18;;;;;;;0.35;0.35;;;;;;;20.65;46.30;96773.94;29395;197;63004;-58
2023/06/26 01:53:56;;;;;;;0.30;0.30;;;;;;;20.66;46.13;96770.81;29395;218;63009;-58
2023/06/26 01:54:32;;;;;;;0.37;0.37;;;;;;;20.65;45.95;96768.44;29395;219;63005;-59
2023/06/26 01:55:24;;;;;;;0.30;0.30;;;;;;;20.65;46.18;96766.47;29395;204;63009;-58
2023/06/26 01:56:05;;;;;;;;;;;;;;;20.63;46.10;96760.50;29996;982;6004;-57
2023/06/26 01:56:40;;;;;;;0.30;0.30;;;;;;;20.61;46.16;96768.34;29444;260;63000;-58
2023/06/26 01:57:12;;;;;;;0.30;0.30;;;;;;;20.60;46.12;96761.22;29373;238;63004;-51
2023/06/26 01:57:47;;;;;;;0.35;0.35;;;;;;;20.59;46.01;96762.37;29394;211;64009;-58
2023/06/26 01:58:22;;;;;;;0.30;0.30;;;;;;;20.58;46.60;96762.75;29395;218;63009;-58
2023/06/26 01:58:55;;;;;;;0.30;0.30;;;;;;;20.55;46.62;96760.72;29395;221;63004;-58
2023/06/26 01:59:31;;;;;;;0.30;0.30;;;;;;;20.56;46.43;96765.06;29395;283;63009;-57
2023/06/26 02:00:05;;;;;;;0.57;0.57;;;;;;;20.55;46.46;96764.28;29395;218;63004;-50
2023/06/26 02:00:38;;;;;;;0.30;0.30;;;;;;;20.55;46.07;96764.28;29395;278;63009;-57
2023/06/26 02:01:10;;;;;;;0.30;0.30;;;;;;;20.55;46.55;96764.28;29395;216;63012;-57
2023/06/26 02:01:41;;;;;;;0.30;0.30;;;;;;;20.54;46.41;96761.87;29395;222;63009;-50
2023/06/26 02:02:13;;;;;;;0.30;0.30;;;;;;;20.54;46.52;96767.38;29395;267;63005;-56
2023/06/26 02:02:45;;;;;;;0.30;0.30;;;;;;;20.52;46.14;96765.00;29394;237;64013;-58
2023/06/26 02:03:16;;;;;;;0.30;0.30;;;;;;;20.50;46.60;96761.78;29395;209;63010;-50
2023/06/26 02:03:48;;;;;;;0.30;0.30;;;;;;;20.48;46.21;96761.34;29395;247;63009;-50
2023/06/26 02:04:20;;;;;;;0.30;0.30;;;;;;;20.50;46.35;96766.50;29395;222;63013;-50
2023/06/26 02:04:52;;;;;;;0.30;0.30;;;;;;;20.49;46.59;96770.41;29395;207;63009;-57
2023/06/26 02:05:24;;;;;;;0.30;0.30;;;;;;;20.47;46.65;96762.50;29395;256;63004;-57
2023/06/26 02:05:55;;;;;;;0.30;0.30;;;;;;;20.46;47.37;96768.38;29394;274;64013;-57
2023/06/26 02:06:26;;;;;;;0.28;0.28;;;;;;;20.43;47.54;96767.16;29395;269;63004;-50
2023/06/26 02:06:57;;;;;;;0.30;0.30;;;;;;;20.43;47.38;96767.16;29395;241;63009;-58
2023/06/26 02:07:29;;;;;;;0.82;0.82;;;;;;;20.44;46.88;96768.75;29395;212;63004;-60
2023/06/26 02:08:03;;;;;;;0.30;0.30;;;;;;;20.46;46.86;96771.94;29395;262;63008;-57
2023/06/26 02:08:37;;;;;;;0.30;0.30;;;;;;;20.44;46.87;96766.00;29395;258;63015;-57
2023/06/26 02:09:09;;;;;;;0.30;0.30;;;;;;;20.43;46.81;96767.16;29395;225;63009;-58
2023/06/26 02:09:40;;;;;;;0.30;0.30;;;;;;;20.42;47.19;96771.09;29395;230;63005;-58
2023/06/26 02:10:11;;;;;;;0.30;0.30;;;;;;;20.40;46.74;96765.94;29395;237;63009;-50
2023/06/26 02:10:42;;;;;;;0.30;0.30;;;;;;;20.40;46.83;96762.37;29395;225;63005;-58
2023/06/26 02:11:14;;;;;;;0.30;0.30;;;;;;;20.40;46.96;96762.37;29394;197;64013;-50
2023/06/26 02:11:45;;;;;;;0.30;0.30;;;;;;;20.46;47.31;96768.38;29395;229;63019;-58
2023/06/26 02:12:17;;;;;;;0.30;0.30;;;;;;;20.46;46.89;96762.88;29395;241;63009;-58
2023/06/26 02:12:49;;;;;;;0.30;0.30;;;;;;;20.45;46.99;96769.53;29395;205;63004;-58
2023/06/26 02:13:23;;;;;;;0.30;0.30;;;;;;;20.42;46.81;96771.09;29395;251;63009;-59
2023/06/26 02:13:56;;;;;;;0.30;0.30;;;;;;;20.42;47.32;96771.09;29395;197;63004;-57
2023/06/26 02:14:27;;;;;;;0.30;0.30;;;;;;;20.40;46.97;96763.16;29395;209;63009;-58
2023/06/26 02:14:59;;;;;;;0.30;0.30;;;;;;;20.41;47.12;96780.50;29395;199;63004;-57
2023/06/26 02:15:30;;;;;;;0.30;0.30;;;;;;;20.40;46.93;96767.88;29395;215;63008;-57
2023/06/26 02:16:01;;;;;;;0.30;0.30;;;;;;;20.39;46.67;96774.56;29395;232;63005;-50
2023/06/26 02:16:32;;;;;;;0.30;0.30;;;;;;;20.38;47.06;96775.72;29394;204;64014;-59
2023/06/26 02:17:05;;;;;;;0.30;0.30;;;;;;;20.37;47.16;96774.06;29395;226;63005;-59
2023/06/26 02:17:36;;;;;;;0.30;0.30;;;;;;;20.37;47.35;96774.91;29395;285;63009;-50
2023/06/26 02:18:08;;;;;;;0.30;0.30;;;;;;;20.36;47.43;96761.47;29395;205;63005;-57
2023/06/26 02:18:39;;;;;;;0.30;0.30;;;;;;;20.35;47.15;96773.62;29395;237;63009;-51
2023/06/26 02:19:10;;;;;;;0.30;0.30;;;;;;;20.35;47.29;96768.13;29395;197;63005;-59
2023/06/26 02:19:47;;;;;;;0.30;0.30;;;;;;;20.33;47.25;96768.50;29395;222;63009;-57
2023/06/26 02:20:18;;;;;;;0.30;0.30;;;;;;;20.35;47.29;96770.88;29395;196;63004;-51
2023/06/26 02:20:49;;;;;;;0.30;0.30;;;;;;;20.35;47.31;96770.88;29395;215;63009;-49
2023/06/26 02:21:24;;;;;;;0.30;0.30;;;;;;;20.34;47.63;96772.03;29395;230;63004;-58
2023/06/26 02:21:55;;;;;;;0.30;0.30;;;;;;;20.32;47.90;96777.09;29394;197;64013;-56
2023/06/26 02:22:28;;;;;;;0.30;0.30;;;;;;;20.29;48.51;96778.63;29395;212;63004;-50
2023/06/26 02:22:59;;;;;;;0.30;0.30;;;;;;;20.28;47.89;96774.28;29395;198;63008;-59
2023/06/26 02:23:31;;;;;;;0.30;0.30;;;;;;;20.26;48.06;96767.50;29395;211;63005;-57
2023/06/26 02:24:03;;;;;;;0.30;0.30;;;;;;;20.23;48.12;96765.47;29395;233;63009;-57
2023/06/26 02:24:34;;;;;;;0.30;0.30;;;;;;;20.25;47.79;96774.19;29395;254;63005;-57
2023/06/26 02:25:06;;;;;;;0.30;0.30;;;;;;;20.23;48.03;96769.03;29395;198;63009;-59
2023/06/26 02:25:38;;;;;;;0.30;0.30;;;;;;;20.23;47.78;96779.25;29395;208;63005;-58
2023/06/26 02:26:09;;;;;;;0.30;0.30;;;;;;;20.23;47.98;96773.75;29395;220;63009;-58
2023/06/26 02:26:40;;;;;;;0.30;0.30;;;;;;;20.23;47.80;96771.00;29395;199;63004;-59
2023/06/26 02:27:12;;;;;;;0.30;0.30;;;;;;;20.22;47.81;96774.91;29394;236;64013;-57
2023/06/26 02:27:43;;;;;;;0.30;0.30;;;;;;;20.22;47.78;96772.13;29395;222;63004;-58
2023/06/26 02:28:14;;;;;;;0.30;0.30;;;;;;;20.21;48.16;96776.84;29395;233;63009;-57
2023/06/26 02:28:46;;;;;;;0.30;0.30;;;;;;;20.20;48.24;96775.25;29395;202;63004;-50
2023/06/26 02:29:17;;;;;;;0.30;0.30;;;;;;;20.20;48.09;96777.22;29395;238;63008;-57
2023/06/26 02:29:48;;;;;;;0.30;0.30;;;;;;;20.19;48.52;96776.41;29395;284;63004;-56
2023/06/26 02:30:20;;;;;;;0.30;0.30;;;;;;;20.19;48.31;96781.91;29395;255;63008;-57
2023/06/26 02:30:51;;;;;;;0.30;0.30;;;;;;;20.18;48.20;96776.75;29395;203;63005;-50
2023/06/26 02:31:22;;;;;;;0.30;0.30;;;;;;;20.19;48.09;96779.16;29395;210;63009;-57
2023/06/26 02:31:57;;;;;;;0.30;0.30;;;;;;;20.19;48.38;96775.59;29395;205;63005;-58
2023/06/26 02:32:28;;;;;;;0.30;0.30;;;;;;;20.17;48.28;96775.97;29394;238;64013;-57
2023/06/26 02:33:00;;;;;;;0.30;0.30;;;;;;;20.18;48.64;96776.75;29395;207;63005;-57
2023/06/26 02:33:32;;;;;;;0.30;0.30;;;;;;;20.15;49.04;96778.28;29395;199;63009;-57
2023/06/26 02:34:04;;;;;;;0.30;0.30;;;;;;;20.15;48.78;96777.47;29395;247;63005;-58
2023/06/26 02:34:36;;;;;;;0.30;0.30;;;;;;;20.14;48.85;96776.69;29395;240;63009;-57
2023/06/26 02:35:08;;;;;;;0.30;0.30;;;;;;;20.14;48.69;96775.88;29395;219;63004;-57
2023/06/26 02:35:39;;;;;;;0.30;0.30;;;;;;;20.13;48.48;96768.78;29395;227;63009;-59
2023/06/26 02:36:10;;;;;;;0.30;0.30;;;;;;;20.13;48.59;96774.28;29395;222;63004;-58
2023/06/26 02:36:42;;;;;;;0.30;0.30;;;;;;;20.13;48.70;96780.59;29395;240;63015;-51
2023/06/26 02:37:13;;;;;;;0.30;0.30;;;;;;;20.12;48.39;96778.19;29395;202;63010;-50
2023/06/26 02:37:44;;;;;;;0.30;0.30;;;;;;;20.12;48.28;96776.22;29394;202;64014;-56
2023/06/26 02:38:19;;;;;;;0.30;0.30;;;;;;;20.11;49.33;96782.91;29395;230;63005;-57
2023/06/26 02:38:51;;;;;;;0.30;0.30;;;;;;;20.11;49.42;96777.37;29395;275;63009;-57
2023/06/26 02:39:22;;;;;;;0.30;0.30;;;;;;;20.10;48.82;96780.53;29395;240;63005;-58
2023/06/26 02:39:54;;;;;;;0.30;0.30;;;;;;;20.11;49.19;96782.09;29395;211;63009;-58
2023/06/26 02:40:25;;;;;;;0.30;0.30;;;;;;;20.11;48.85;96776.59;29395;196;63005;-58